createdAt,value
2022-11-17T00:00:41.999Z,5.40
2022-11-17T00:04:47.487Z,5.40
2022-11-17T00:08:50.975Z,5.40
2022-11-17T00:13:11.506Z,5.40
2022-11-17T00:17:15.947Z,5.40
2022-11-17T00:21:19.941Z,5.50
2022-11-17T00:25:23.264Z,5.50
2022-11-17T00:29:26.642Z,5.50
2022-11-17T00:33:47.220Z,5.60
2022-11-17T00:38:05.709Z,5.70
2022-11-17T00:42:09.079Z,5.60
2022-11-17T00:46:12.965Z,5.60
2022-11-17T00:50:16.704Z,5.50
2022-11-17T00:54:24.168Z,5.70
2022-11-17T00:58:30.002Z,5.60
2022-11-17T01:02:35.263Z,5.70
2022-11-17T01:06:41.926Z,5.70
2022-11-17T01:10:55.526Z,5.70
2022-11-17T01:15:03.873Z,5.60
2022-11-17T01:19:11.055Z,5.70
2022-11-17T01:23:20.008Z,5.60
2022-11-17T01:27:26.711Z,5.70
2022-11-17T01:31:33.646Z,5.60
2022-11-17T01:35:38.695Z,5.70
2022-11-17T01:39:43.442Z,5.80
2022-11-17T01:43:54.365Z,5.90
2022-11-17T01:48:05.171Z,5.90
2022-11-17T01:52:19.327Z,6.00
2022-11-17T01:56:28.725Z,6.10
2022-11-17T02:00:45.087Z,6.00
2022-11-17T02:04:57.451Z,6.00
2022-11-17T02:09:07.241Z,6.10
2022-11-17T02:13:14.549Z,6.10
2022-11-17T02:17:24.918Z,6.00
2022-11-17T02:22:05.835Z,6.00
2022-11-17T02:27:28.618Z,6.10
2022-11-17T02:31:43.039Z,5.90
2022-11-17T02:35:54.374Z,5.90
2022-11-17T02:40:05.172Z,5.90
2022-11-17T02:44:34.834Z,5.90
2022-11-17T02:48:51.008Z,6.00
2022-11-17T02:53:10.943Z,5.80
2022-11-17T02:57:33.919Z,5.90
2022-11-17T03:02:23.747Z,5.80
2022-11-17T03:06:49.824Z,5.70
2022-11-17T03:11:03.968Z,5.80
2022-11-17T03:15:33.873Z,5.80
2022-11-17T03:19:49.281Z,5.90
2022-11-17T03:24:10.268Z,5.80
2022-11-17T03:28:18.460Z,5.80
2022-11-17T03:32:39.100Z,5.80
2022-11-17T03:36:58.366Z,5.80
2022-11-17T03:41:19.289Z,5.70
2022-11-17T03:45:34.479Z,5.80
2022-11-17T03:49:55.713Z,5.70
2022-11-17T03:54:18.993Z,5.70
2022-11-17T03:58:32.766Z,5.60
2022-11-17T04:02:39.156Z,5.60
2022-11-17T04:06:46.224Z,5.50
2022-11-17T04:11:17.974Z,5.40
2022-11-17T04:20:22.379Z,5.30
2022-11-17T04:24:31.809Z,5.30
2022-11-17T04:28:40.566Z,5.40
2022-11-17T04:32:51.568Z,5.30
2022-11-17T04:37:06.970Z,5.20
2022-11-17T04:41:36.782Z,5.20
2022-11-17T04:46:18.625Z,5.20
2022-11-17T04:50:32.301Z,5.10
2022-11-17T04:54:56.926Z,5.10
2022-11-17T04:59:04.062Z,5.20
2022-11-17T05:03:12.321Z,5.10
2022-11-17T05:07:22.981Z,5.10
2022-11-17T05:11:46.875Z,5.00
2022-11-17T05:16:09.066Z,5.10
2022-11-17T05:20:17.971Z,5.10
2022-11-17T05:24:41.629Z,5.20
2022-11-17T05:28:53.479Z,5.20
2022-11-17T05:33:13.630Z,5.20
2022-11-17T05:37:18.594Z,5.30
2022-11-17T05:41:29.733Z,5.20
2022-11-17T05:45:34.775Z,5.20
2022-11-17T05:49:42.365Z,5.10
2022-11-17T05:53:45.999Z,5.00
2022-11-17T05:57:52.630Z,5.10
2022-11-17T06:02:02.078Z,5.10
2022-11-17T06:06:06.242Z,5.10
2022-11-17T06:10:10.574Z,5.00
2022-11-17T06:14:15.622Z,5.10
2022-11-17T06:18:20.200Z,5.10
2022-11-17T06:22:24.707Z,5.10
2022-11-17T06:26:31.064Z,5.10
2022-11-17T06:30:39.495Z,5.10
2022-11-17T06:34:56.307Z,5.20
2022-11-17T06:39:02.330Z,5.10
2022-11-17T06:43:11.034Z,5.20
2022-11-17T06:47:21.612Z,5.30
2022-11-17T06:51:26.445Z,5.30
2022-11-17T06:55:32.570Z,5.40
2022-11-17T06:59:37.880Z,5.50
2022-11-17T07:03:46.643Z,5.70
2022-11-17T07:07:51.726Z,6.00
2022-11-17T07:11:58.590Z,6.20
2022-11-17T07:16:06.121Z,6.30
2022-11-17T07:20:12.061Z,6.10
2022-11-17T07:24:24.621Z,6.10
2022-11-17T07:28:28.682Z,6.20
2022-11-17T07:32:33.492Z,6.50
2022-11-17T07:36:38.256Z,6.70
2022-11-17T07:40:41.914Z,7.10
2022-11-17T07:45:04.169Z,7.50
2022-11-17T07:49:07.488Z,7.40
2022-11-17T07:53:12.387Z,7.60
2022-11-17T07:57:16.235Z,7.60
2022-11-17T08:01:19.714Z,7.70
2022-11-17T08:05:23.301Z,7.90
2022-11-17T08:09:28.016Z,8.10
2022-11-17T08:13:31.596Z,8.20
2022-11-17T08:17:35.062Z,7.70
2022-11-17T08:21:38.703Z,7.90
2022-11-17T08:25:43.390Z,8.00
2022-11-17T08:29:46.815Z,8.40
2022-11-17T08:33:50.034Z,8.40
2022-11-17T08:37:53.630Z,8.30
2022-11-17T08:41:58.286Z,8.20
2022-11-17T08:46:02.569Z,8.20
2022-11-17T08:50:07.372Z,8.50
2022-11-17T08:54:12.699Z,8.40
2022-11-17T08:58:17.813Z,8.40
2022-11-17T09:02:21.104Z,8.30
2022-11-17T09:06:24.449Z,8.60
2022-11-17T09:10:27.861Z,8.30
2022-11-17T09:14:32.740Z,8.40
2022-11-17T09:18:37.206Z,8.60
2022-11-17T09:22:40.919Z,8.70
2022-11-17T09:26:44.867Z,8.80
2022-11-17T09:30:49.601Z,9.00
2022-11-17T09:34:52.976Z,9.10
2022-11-17T09:38:56.421Z,9.30
2022-11-17T09:42:59.784Z,9.50
2022-11-17T09:47:15.612Z,9.60
2022-11-17T09:51:21.688Z,9.60
2022-11-17T09:55:34.237Z,9.60
2022-11-17T09:59:38.771Z,9.50
2022-11-17T10:03:46.388Z,9.60
2022-11-17T10:07:52.682Z,9.90
2022-11-17T10:12:07.224Z,10.10
2022-11-17T10:16:14.504Z,10.10
2022-11-17T10:20:19.992Z,9.80
2022-11-17T10:24:37.122Z,10.00
2022-11-17T10:28:40.740Z,10.50
2022-11-17T10:32:50.486Z,10.90
2022-11-17T10:36:55.133Z,10.90
2022-11-17T10:41:01.883Z,10.90
2022-11-17T10:45:06.678Z,10.80
2022-11-17T10:49:25.863Z,11.00
2022-11-17T10:53:42.970Z,13.40
2022-11-17T10:57:51.268Z,15.10
2022-11-17T11:01:54.758Z,17.30
2022-11-17T11:06:22.538Z,19.10
2022-11-17T11:10:33.088Z,16.70
2022-11-17T11:14:40.917Z,14.70
2022-11-17T11:18:44.357Z,13.30
2022-11-17T11:22:58.362Z,12.20
2022-11-17T11:27:13.269Z,11.70
2022-11-17T11:31:25.741Z,11.30
2022-11-17T11:35:55.011Z,11.00
2022-11-17T11:40:11.128Z,11.40
2022-11-17T11:44:55.524Z,12.60
2022-11-17T11:49:04.654Z,11.70
2022-11-17T11:53:17.065Z,11.40
2022-11-17T11:57:26.359Z,11.10
2022-11-17T12:01:38.215Z,10.60
2022-11-17T12:05:50.260Z,10.50
2022-11-17T12:10:04.036Z,11.50
2022-11-17T12:14:08.256Z,14.60
2022-11-17T12:18:33.510Z,17.50
2022-11-17T12:22:59.425Z,19.60
2022-11-17T12:27:33.163Z,21.70
2022-11-17T12:31:44.863Z,20.80
2022-11-17T12:36:31.147Z,20.50
2022-11-17T12:40:45.294Z,23.00
2022-11-17T12:45:09.466Z,23.60
2022-11-17T12:49:21.414Z,23.60
2022-11-17T12:53:54.937Z,24.10
2022-11-17T12:58:10.475Z,23.40
2022-11-17T13:02:47.861Z,22.30
2022-11-17T13:07:02.266Z,20.60
2022-11-17T13:11:12.765Z,16.40
2022-11-17T13:15:24.109Z,14.00
2022-11-17T13:19:39.392Z,12.50
2022-11-17T13:23:45.936Z,11.80
2022-11-17T13:27:56.025Z,11.40
2022-11-17T13:32:17.651Z,11.30
2022-11-17T13:36:24.979Z,11.00
2022-11-17T13:40:28.627Z,10.90
2022-11-17T13:44:34.186Z,11.00
2022-11-17T13:48:39.442Z,11.10
2022-11-17T13:52:46.903Z,11.10
2022-11-17T13:56:54.523Z,10.80
2022-11-17T14:01:00.291Z,10.60
2022-11-17T14:05:23.999Z,10.50
2022-11-17T14:09:28.764Z,10.40
2022-11-17T14:13:33.641Z,10.40
2022-11-17T14:17:38.639Z,10.40
2022-11-17T14:22:00.328Z,10.40
2022-11-17T14:26:03.646Z,10.00
2022-11-17T14:30:08.056Z,9.80
2022-11-17T14:34:13.302Z,9.80
2022-11-17T14:38:23.004Z,9.80
2022-11-17T14:42:27.524Z,9.70
2022-11-17T14:46:32.535Z,9.50
2022-11-17T14:50:40.982Z,9.40
2022-11-17T14:54:52.583Z,9.30
2022-11-17T14:58:59.289Z,9.00
2022-11-17T15:03:02.769Z,8.90
2022-11-17T15:07:07.644Z,8.70
2022-11-17T15:11:16.354Z,8.40
2022-11-17T15:15:20.068Z,8.20
2022-11-17T15:19:23.376Z,7.80
2022-11-17T15:23:28.112Z,7.70
2022-11-17T15:27:32.231Z,7.50
2022-11-17T15:31:35.642Z,7.30
2022-11-17T15:35:38.989Z,7.10
2022-11-17T15:39:43.730Z,7.00
2022-11-17T15:43:47.191Z,6.80
2022-11-17T15:47:50.527Z,6.70
2022-11-17T15:51:54.624Z,6.40
2022-11-17T15:56:03.689Z,6.30
2022-11-17T16:00:08.289Z,6.20
2022-11-17T16:04:13.176Z,6.10
2022-11-17T16:08:16.421Z,6.20
2022-11-17T16:12:21.058Z,6.10
2022-11-17T16:16:25.565Z,6.00
2022-11-17T16:20:28.898Z,5.90
2022-11-17T16:24:32.188Z,5.80
2022-11-17T16:28:36.916Z,5.80
2022-11-17T16:32:40.267Z,5.60
2022-11-17T16:36:44.938Z,5.60
2022-11-17T16:40:48.882Z,5.40
2022-11-17T16:44:57.228Z,5.40
2022-11-17T16:49:03.089Z,5.40
2022-11-17T16:53:06.550Z,5.30
2022-11-17T16:57:16.562Z,5.10
2022-11-17T17:01:24.932Z,5.00
2022-11-17T17:05:36.666Z,4.90
2022-11-17T17:09:40.859Z,4.90
2022-11-17T17:13:44.557Z,4.80
2022-11-17T17:17:50.447Z,4.80
2022-11-17T17:21:54.109Z,4.70
2022-11-17T17:26:05.967Z,4.60
2022-11-17T17:30:11.118Z,4.60
2022-11-17T17:34:17.211Z,4.60
2022-11-17T17:38:22.407Z,4.40
2022-11-17T17:42:26.668Z,4.40
2022-11-17T17:46:34.678Z,4.30
2022-11-17T17:50:41.514Z,4.30
2022-11-17T17:54:45.622Z,4.20
2022-11-17T17:58:51.821Z,4.20
2022-11-17T18:02:58.009Z,4.10
2022-11-17T18:07:04.219Z,4.00
2022-11-17T18:11:10.387Z,4.00
2022-11-17T18:15:14.456Z,4.10
2022-11-17T18:19:26.911Z,4.20
2022-11-17T18:23:38.894Z,4.30
2022-11-17T18:27:55.221Z,4.40
2022-11-17T18:31:59.649Z,4.60
2022-11-17T18:36:10.491Z,4.50
2022-11-17T18:40:16.667Z,4.60
2022-11-17T18:44:26.472Z,4.70
2022-11-17T18:48:35.695Z,4.70
2022-11-17T18:52:43.783Z,4.50
2022-11-17T18:56:50.928Z,4.50
2022-11-17T19:00:55.266Z,4.40
2022-11-17T19:05:01.826Z,4.30
2022-11-17T19:09:09.733Z,4.20
2022-11-17T19:13:16.910Z,4.10
2022-11-17T19:17:24.150Z,4.10
2022-11-17T19:21:31.794Z,4.00
2022-11-17T19:25:39.682Z,3.90
2022-11-17T19:29:47.652Z,3.80
2022-11-17T19:33:55.711Z,3.70
2022-11-17T19:38:00.212Z,3.60
2022-11-17T19:42:05.789Z,3.60
2022-11-17T19:46:13.780Z,3.50
2022-11-17T19:50:21.370Z,3.40
2022-11-17T19:54:33.467Z,3.30
2022-11-17T19:58:41.517Z,3.30
2022-11-17T20:03:02.253Z,3.40
2022-11-17T20:07:12.659Z,3.30
2022-11-17T20:11:20.677Z,3.20
2022-11-17T20:15:34.427Z,3.20
2022-11-17T20:19:41.250Z,3.10
2022-11-17T20:23:46.292Z,3.10
2022-11-17T20:27:52.038Z,3.10
2022-11-17T20:31:56.542Z,3.10
2022-11-17T20:36:08.812Z,3.00
2022-11-17T20:40:19.770Z,3.00
2022-11-17T20:44:29.882Z,3.00
2022-11-17T20:48:35.692Z,3.00
2022-11-17T20:52:44.237Z,2.90
2022-11-17T20:56:50.043Z,2.80
2022-11-17T21:00:55.583Z,2.80
2022-11-17T21:04:59.693Z,2.70
2022-11-17T21:09:04.629Z,2.70
2022-11-17T21:13:08.967Z,2.80
2022-11-17T21:17:32.998Z,2.90
2022-11-17T21:21:38.473Z,3.00
2022-11-17T21:25:43.583Z,3.20
2022-11-17T21:29:48.066Z,3.40
2022-11-17T21:33:54.252Z,3.60
2022-11-17T21:37:57.913Z,3.70
2022-11-17T21:42:02.624Z,3.80
2022-11-17T21:46:07.274Z,3.80
2022-11-17T21:50:11.654Z,3.90
2022-11-17T21:54:15.041Z,4.10
2022-11-17T21:58:19.725Z,4.10
2022-11-17T22:02:23.358Z,4.30
2022-11-17T22:06:27.572Z,4.20
2022-11-17T22:10:30.847Z,4.10
2022-11-17T22:14:35.529Z,4.10
2022-11-17T22:18:39.108Z,4.00
2022-11-17T22:22:42.350Z,4.10
2022-11-17T22:26:46.403Z,4.10
2022-11-17T22:30:51.166Z,4.10
2022-11-17T22:34:55.741Z,4.20
2022-11-17T22:38:58.999Z,4.10
2022-11-17T22:43:05.231Z,4.20
2022-11-17T22:47:10.923Z,4.20
2022-11-17T22:51:36.711Z,4.10
2022-11-17T22:55:40.031Z,3.90
2022-11-17T22:59:43.339Z,3.80
2022-11-17T23:03:48.901Z,3.60
2022-11-17T23:07:52.197Z,3.50
2022-11-17T23:11:55.494Z,3.60
2022-11-17T23:15:59.157Z,3.50
2022-11-17T23:20:04.366Z,3.40
2022-11-17T23:24:09.971Z,3.30
2022-11-17T23:28:13.357Z,3.10
2022-11-17T23:32:16.624Z,3.20
2022-11-17T23:36:23.045Z,3.40
2022-11-17T23:40:26.317Z,3.40
2022-11-17T23:44:29.570Z,3.60
2022-11-17T23:48:32.874Z,3.60
2022-11-17T23:52:37.593Z,3.60
2022-11-17T23:56:40.972Z,3.70
